sensor_id;sensor_type;location;lat;lon;timestamp;temperature;humidity
12130;DHT22;6128;59.340;18.040;2022-08-05T00:02:22;21.40;99.90
12130;DHT22;6128;59.340;18.040;2022-08-05T00:04:51;21.40;99.90
12130;DHT22;6128;59.340;18.040;2022-08-05T00:07:18;21.40;99.90
12130;DHT22;6128;59.340;18.040;2022-08-05T00:09:45;21.40;99.90
12130;DHT22;6128;59.340;18.040;2022-08-05T00:12:12;21.40;99.90
12130;DHT22;6128;59.340;18.040;2022-08-05T00:14:39;21.40;99.90
12130;DHT22;6128;59.340;18.040;2022-08-05T00:17:06;21.50;99.90
12130;DHT22;6128;59.340;18.040;2022-08-05T00:19:34;21.40;99.90
12130;DHT22;6128;59.340;18.040;2022-08-05T00:22:03;21.40;99.90
12130;DHT22;6128;59.340;18.040;2022-08-05T00:24:30;21.30;99.90
12130;DHT22;6128;59.340;18.040;2022-08-05T00:26:57;21.30;99.90
12130;DHT22;6128;59.340;18.040;2022-08-05T00:29:24;21.40;99.90
12130;DHT22;6128;59.340;18.040;2022-08-05T00:31:52;21.40;99.90
12130;DHT22;6128;59.340;18.040;2022-08-05T00:34:19;21.30;99.90
12130;DHT22;6128;59.340;18.040;2022-08-05T00:36:46;21.30;99.90
12130;DHT22;6128;59.340;18.040;2022-08-05T00:39:15;21.30;99.90
12130;DHT22;6128;59.340;18.040;2022-08-05T00:41:45;21.20;99.90
12130;DHT22;6128;59.340;18.040;2022-08-05T00:44:12;21.20;99.90
12130;DHT22;6128;59.340;18.040;2022-08-05T00:46:39;21.20;99.90
12130;DHT22;6128;59.340;18.040;2022-08-05T00:49:06;21.20;99.90
12130;DHT22;6128;59.340;18.040;2022-08-05T00:51:33;21.20;99.90
12130;DHT22;6128;59.340;18.040;2022-08-05T00:54:01;21.10;99.90
12130;DHT22;6128;59.340;18.040;2022-08-05T00:56:30;21.10;99.90
12130;DHT22;6128;59.340;18.040;2022-08-05T00:58:57;21.20;99.90
12130;DHT22;6128;59.340;18.040;2022-08-05T01:01:24;21.10;99.90
12130;DHT22;6128;59.340;18.040;2022-08-05T01:03:51;21.10;99.90
12130;DHT22;6128;59.340;18.040;2022-08-05T01:06:18;21.10;99.90
12130;DHT22;6128;59.340;18.040;2022-08-05T01:08:46;21.10;99.90
12130;DHT22;6128;59.340;18.040;2022-08-05T01:11:16;21.10;99.90
12130;DHT22;6128;59.340;18.040;2022-08-05T01:13:50;21.10;99.90
12130;DHT22;6128;59.340;18.040;2022-08-05T01:16:23;21.10;99.90
12130;DHT22;6128;59.340;18.040;2022-08-05T01:18:59;21.10;99.90
12130;DHT22;6128;59.340;18.040;2022-08-05T01:24:46;21.10;99.90
12130;DHT22;6128;59.340;18.040;2022-08-05T01:27:28;21.20;99.90
12130;DHT22;6128;59.340;18.040;2022-08-05T01:30:02;21.20;99.90
12130;DHT22;6128;59.340;18.040;2022-08-05T01:32:34;21.20;99.90
12130;DHT22;6128;59.340;18.040;2022-08-05T01:35:05;21.20;99.90
12130;DHT22;6128;59.340;18.040;2022-08-05T01:37:38;21.30;99.90
12130;DHT22;6128;59.340;18.040;2022-08-05T01:40:08;21.30;99.90
12130;DHT22;6128;59.340;18.040;2022-08-05T01:42:37;21.30;99.90
12130;DHT22;6128;59.340;18.040;2022-08-05T01:45:09;21.30;99.90
12130;DHT22;6128;59.340;18.040;2022-08-05T01:47:37;21.40;99.90
12130;DHT22;6128;59.340;18.040;2022-08-05T01:50:07;21.40;99.90
12130;DHT22;6128;59.340;18.040;2022-08-05T01:52:37;21.40;99.90
12130;DHT22;6128;59.340;18.040;2022-08-05T01:55:08;21.40;99.90
12130;DHT22;6128;59.340;18.040;2022-08-05T01:57:39;21.40;99.90
12130;DHT22;6128;59.340;18.040;2022-08-05T02:00:10;21.30;99.90
12130;DHT22;6128;59.340;18.040;2022-08-05T02:02:40;21.30;99.90
12130;DHT22;6128;59.340;18.040;2022-08-05T02:05:11;21.30;99.90
12130;DHT22;6128;59.340;18.040;2022-08-05T02:07:39;21.30;99.90
12130;DHT22;6128;59.340;18.040;2022-08-05T02:10:09;21.30;99.90
12130;DHT22;6128;59.340;18.040;2022-08-05T02:12:43;21.30;99.90
12130;DHT22;6128;59.340;18.040;2022-08-05T02:15:21;21.30;99.90
12130;DHT22;6128;59.340;18.040;2022-08-05T02:17:51;21.30;99.90
12130;DHT22;6128;59.340;18.040;2022-08-05T02:20:22;21.30;99.90
12130;DHT22;6128;59.340;18.040;2022-08-05T02:22:55;21.30;99.90
12130;DHT22;6128;59.340;18.040;2022-08-05T02:25:25;21.30;99.90
12130;DHT22;6128;59.340;18.040;2022-08-05T02:27:55;21.20;99.90
12130;DHT22;6128;59.340;18.040;2022-08-05T02:30:26;21.20;99.90
12130;DHT22;6128;59.340;18.040;2022-08-05T02:32:54;21.20;99.90
12130;DHT22;6128;59.340;18.040;2022-08-05T02:35:24;21.20;99.90
12130;DHT22;6128;59.340;18.040;2022-08-05T02:37:53;21.30;99.90
12130;DHT22;6128;59.340;18.040;2022-08-05T02:40:22;21.30;99.90
12130;DHT22;6128;59.340;18.040;2022-08-05T02:42:50;21.20;99.90
12130;DHT22;6128;59.340;18.040;2022-08-05T02:45:19;21.20;99.90
12130;DHT22;6128;59.340;18.040;2022-08-05T02:47:49;21.30;99.90
12130;DHT22;6128;59.340;18.040;2022-08-05T02:50:18;21.30;99.90
12130;DHT22;6128;59.340;18.040;2022-08-05T02:52:47;21.20;99.90
12130;DHT22;6128;59.340;18.040;2022-08-05T02:55:15;21.10;99.90
12130;DHT22;6128;59.340;18.040;2022-08-05T02:57:43;21.00;99.90
12130;DHT22;6128;59.340;18.040;2022-08-05T03:00:12;20.90;99.90
12130;DHT22;6128;59.340;18.040;2022-08-05T03:02:41;20.90;99.90
12130;DHT22;6128;59.340;18.040;2022-08-05T03:05:11;20.80;99.90
12130;DHT22;6128;59.340;18.040;2022-08-05T03:07:40;20.80;99.90
12130;DHT22;6128;59.340;18.040;2022-08-05T03:10:09;20.90;99.90
12130;DHT22;6128;59.340;18.040;2022-08-05T03:12:37;20.90;99.90
12130;DHT22;6128;59.340;18.040;2022-08-05T03:15:07;20.90;99.90
12130;DHT22;6128;59.340;18.040;2022-08-05T03:17:35;21.00;99.90
12130;DHT22;6128;59.340;18.040;2022-08-05T03:20:03;21.00;99.90
12130;DHT22;6128;59.340;18.040;2022-08-05T03:22:31;21.00;99.90
12130;DHT22;6128;59.340;18.040;2022-08-05T03:24:59;21.00;99.90
12130;DHT22;6128;59.340;18.040;2022-08-05T03:27:27;21.10;99.90
12130;DHT22;6128;59.340;18.040;2022-08-05T03:29:54;21.10;99.90
12130;DHT22;6128;59.340;18.040;2022-08-05T03:32:21;21.10;99.90
12130;DHT22;6128;59.340;18.040;2022-08-05T03:34:48;21.10;99.90
12130;DHT22;6128;59.340;18.040;2022-08-05T03:37:16;21.10;99.90
12130;DHT22;6128;59.340;18.040;2022-08-05T03:39:57;21.10;99.90
12130;DHT22;6128;59.340;18.040;2022-08-05T03:42:24;21.10;99.90
12130;DHT22;6128;59.340;18.040;2022-08-05T03:44:51;21.10;99.90
12130;DHT22;6128;59.340;18.040;2022-08-05T03:47:18;21.10;99.90
12130;DHT22;6128;59.340;18.040;2022-08-05T03:49:46;21.10;99.90
12130;DHT22;6128;59.340;18.040;2022-08-05T03:52:18;21.10;99.90
12130;DHT22;6128;59.340;18.040;2022-08-05T03:54:51;21.10;99.90
12130;DHT22;6128;59.340;18.040;2022-08-05T03:57:24;21.00;99.90
12130;DHT22;6128;59.340;18.040;2022-08-05T03:59:57;21.00;99.90
12130;DHT22;6128;59.340;18.040;2022-08-05T04:02:27;21.00;99.90
12130;DHT22;6128;59.340;18.040;2022-08-05T04:04:56;21.00;99.90
12130;DHT22;6128;59.340;18.040;2022-08-05T04:07:24;21.00;99.90
12130;DHT22;6128;59.340;18.040;2022-08-05T04:09:52;21.00;99.90
12130;DHT22;6128;59.340;18.040;2022-08-05T04:12:22;21.00;99.90
12130;DHT22;6128;59.340;18.040;2022-08-05T04:14:49;21.00;99.90
12130;DHT22;6128;59.340;18.040;2022-08-05T04:17:16;20.90;99.90
12130;DHT22;6128;59.340;18.040;2022-08-05T04:19:45;20.90;99.90
12130;DHT22;6128;59.340;18.040;2022-08-05T04:22:12;20.90;99.90
12130;DHT22;6128;59.340;18.040;2022-08-05T04:24:41;20.90;99.90
12130;DHT22;6128;59.340;18.040;2022-08-05T04:27:08;20.80;99.90
12130;DHT22;6128;59.340;18.040;2022-08-05T04:29:37;20.80;99.90
12130;DHT22;6128;59.340;18.040;2022-08-05T04:32:05;20.70;99.90
12130;DHT22;6128;59.340;18.040;2022-08-05T04:34:36;20.70;99.90
12130;DHT22;6128;59.340;18.040;2022-08-05T04:37:04;20.70;99.90
12130;DHT22;6128;59.340;18.040;2022-08-05T04:39:31;20.70;99.90
12130;DHT22;6128;59.340;18.040;2022-08-05T04:41:59;20.70;99.90
12130;DHT22;6128;59.340;18.040;2022-08-05T04:44:26;20.60;99.90
12130;DHT22;6128;59.340;18.040;2022-08-05T04:46:54;20.60;99.90
12130;DHT22;6128;59.340;18.040;2022-08-05T04:49:21;20.60;99.90
12130;DHT22;6128;59.340;18.040;2022-08-05T04:51:50;20.60;99.90
12130;DHT22;6128;59.340;18.040;2022-08-05T04:54:18;20.60;99.90
12130;DHT22;6128;59.340;18.040;2022-08-05T04:56:47;20.60;99.90
12130;DHT22;6128;59.340;18.040;2022-08-05T04:59:14;20.60;99.90
12130;DHT22;6128;59.340;18.040;2022-08-05T05:01:44;20.60;99.90
12130;DHT22;6128;59.340;18.040;2022-08-05T05:04:13;20.60;99.90
12130;DHT22;6128;59.340;18.040;2022-08-05T05:06:40;20.50;99.90
12130;DHT22;6128;59.340;18.040;2022-08-05T05:09:07;20.60;99.90
12130;DHT22;6128;59.340;18.040;2022-08-05T05:11:34;20.60;99.90
12130;DHT22;6128;59.340;18.040;2022-08-05T05:14:01;20.60;99.90
12130;DHT22;6128;59.340;18.040;2022-08-05T05:16:29;20.70;99.90
12130;DHT22;6128;59.340;18.040;2022-08-05T05:18:56;20.70;99.90
12130;DHT22;6128;59.340;18.040;2022-08-05T05:21:25;20.70;99.90
12130;DHT22;6128;59.340;18.040;2022-08-05T05:23:52;20.60;99.90
12130;DHT22;6128;59.340;18.040;2022-08-05T05:26:19;20.70;99.90
12130;DHT22;6128;59.340;18.040;2022-08-05T05:28:47;20.70;99.90
12130;DHT22;6128;59.340;18.040;2022-08-05T05:31:14;20.70;99.90
12130;DHT22;6128;59.340;18.040;2022-08-05T05:33:41;20.70;99.90
12130;DHT22;6128;59.340;18.040;2022-08-05T05:36:08;20.70;99.90
12130;DHT22;6128;59.340;18.040;2022-08-05T05:38:37;20.70;99.90
12130;DHT22;6128;59.340;18.040;2022-08-05T05:41:04;20.70;99.90
12130;DHT22;6128;59.340;18.040;2022-08-05T05:43:32;20.70;99.90
12130;DHT22;6128;59.340;18.040;2022-08-05T05:46:02;20.70;99.90
12130;DHT22;6128;59.340;18.040;2022-08-05T05:48:30;20.70;99.90
12130;DHT22;6128;59.340;18.040;2022-08-05T05:50:57;20.80;99.90
12130;DHT22;6128;59.340;18.040;2022-08-05T05:53:24;20.80;99.90
12130;DHT22;6128;59.340;18.040;2022-08-05T05:55:52;20.90;99.90
12130;DHT22;6128;59.340;18.040;2022-08-05T05:58:20;20.90;99.90
12130;DHT22;6128;59.340;18.040;2022-08-05T06:00:47;21.00;99.90
12130;DHT22;6128;59.340;18.040;2022-08-05T06:03:14;21.10;99.90
12130;DHT22;6128;59.340;18.040;2022-08-05T06:05:41;21.20;99.90
12130;DHT22;6128;59.340;18.040;2022-08-05T06:08:08;21.30;99.90
12130;DHT22;6128;59.340;18.040;2022-08-05T06:10:36;21.50;99.90
12130;DHT22;6128;59.340;18.040;2022-08-05T06:13:04;21.70;99.90
12130;DHT22;6128;59.340;18.040;2022-08-05T06:15:31;22.00;99.90
12130;DHT22;6128;59.340;18.040;2022-08-05T06:17:58;22.40;99.90
12130;DHT22;6128;59.340;18.040;2022-08-05T06:20:26;22.90;99.90
12130;DHT22;6128;59.340;18.040;2022-08-05T06:22:53;23.30;99.90
12130;DHT22;6128;59.340;18.040;2022-08-05T06:25:20;23.60;99.90
12130;DHT22;6128;59.340;18.040;2022-08-05T06:27:47;23.90;99.90
12130;DHT22;6128;59.340;18.040;2022-08-05T06:30:16;24.40;99.90
12130;DHT22;6128;59.340;18.040;2022-08-05T06:32:43;25.10;99.90
12130;DHT22;6128;59.340;18.040;2022-08-05T06:35:10;25.80;99.90
12130;DHT22;6128;59.340;18.040;2022-08-05T06:37:37;26.40;99.90
12130;DHT22;6128;59.340;18.040;2022-08-05T06:40:05;27.20;99.90
12130;DHT22;6128;59.340;18.040;2022-08-05T06:42:33;27.90;99.90
12130;DHT22;6128;59.340;18.040;2022-08-05T06:45:00;28.70;99.90
12130;DHT22;6128;59.340;18.040;2022-08-05T06:47:29;29.30;99.90
12130;DHT22;6128;59.340;18.040;2022-08-05T06:49:56;29.70;99.90
12130;DHT22;6128;59.340;18.040;2022-08-05T06:52:23;30.20;99.90
12130;DHT22;6128;59.340;18.040;2022-08-05T06:54:50;30.50;99.90
12130;DHT22;6128;59.340;18.040;2022-08-05T06:57:18;30.90;99.90
12130;DHT22;6128;59.340;18.040;2022-08-05T06:59:45;31.10;99.90
12130;DHT22;6128;59.340;18.040;2022-08-05T07:02:12;31.10;99.90
12130;DHT22;6128;59.340;18.040;2022-08-05T07:04:40;31.20;99.90
12130;DHT22;6128;59.340;18.040;2022-08-05T07:07:07;31.40;99.90
12130;DHT22;6128;59.340;18.040;2022-08-05T07:09:34;31.50;99.90
12130;DHT22;6128;59.340;18.040;2022-08-05T07:12:02;31.60;99.90
12130;DHT22;6128;59.340;18.040;2022-08-05T07:14:29;31.80;99.90
12130;DHT22;6128;59.340;18.040;2022-08-05T07:17:13;31.90;99.90
12130;DHT22;6128;59.340;18.040;2022-08-05T07:19:42;32.10;99.90
12130;DHT22;6128;59.340;18.040;2022-08-05T07:22:09;32.20;99.90
12130;DHT22;6128;59.340;18.040;2022-08-05T07:24:36;32.30;99.90
12130;DHT22;6128;59.340;18.040;2022-08-05T07:27:04;32.50;99.90
12130;DHT22;6128;59.340;18.040;2022-08-05T07:29:31;32.70;99.90
12130;DHT22;6128;59.340;18.040;2022-08-05T07:31:58;32.80;99.90
12130;DHT22;6128;59.340;18.040;2022-08-05T07:34:25;32.80;99.90
12130;DHT22;6128;59.340;18.040;2022-08-05T07:36:54;32.60;99.90
12130;DHT22;6128;59.340;18.040;2022-08-05T07:39:21;32.40;99.90
12130;DHT22;6128;59.340;18.040;2022-08-05T07:41:48;32.30;99.90
12130;DHT22;6128;59.340;18.040;2022-08-05T07:44:15;32.30;99.90
12130;DHT22;6128;59.340;18.040;2022-08-05T07:46:42;32.10;99.90
12130;DHT22;6128;59.340;18.040;2022-08-05T07:49:09;32.00;99.90
12130;DHT22;6128;59.340;18.040;2022-08-05T07:51:38;32.00;99.90
12130;DHT22;6128;59.340;18.040;2022-08-05T07:54:07;31.90;99.90
12130;DHT22;6128;59.340;18.040;2022-08-05T07:56:34;31.80;99.90
12130;DHT22;6128;59.340;18.040;2022-08-05T07:59:01;31.70;99.90
12130;DHT22;6128;59.340;18.040;2022-08-05T08:01:29;31.50;99.90
12130;DHT22;6128;59.340;18.040;2022-08-05T08:03:56;31.40;99.90
12130;DHT22;6128;59.340;18.040;2022-08-05T08:06:23;31.30;99.90
12130;DHT22;6128;59.340;18.040;2022-08-05T08:08:50;31.30;99.90
12130;DHT22;6128;59.340;18.040;2022-08-05T08:11:18;31.20;99.90
12130;DHT22;6128;59.340;18.040;2022-08-05T08:13:45;31.00;99.90
12130;DHT22;6128;59.340;18.040;2022-08-05T08:16:13;31.00;99.90
12130;DHT22;6128;59.340;18.040;2022-08-05T08:18:40;30.90;99.90
12130;DHT22;6128;59.340;18.040;2022-08-05T08:21:07;31.00;99.90
12130;DHT22;6128;59.340;18.040;2022-08-05T08:23:34;30.80;99.90
12130;DHT22;6128;59.340;18.040;2022-08-05T08:26:02;30.60;99.90
12130;DHT22;6128;59.340;18.040;2022-08-05T08:28:30;30.50;99.90
12130;DHT22;6128;59.340;18.040;2022-08-05T08:30:58;30.40;99.90
12130;DHT22;6128;59.340;18.040;2022-08-05T08:33:25;30.40;99.90
12130;DHT22;6128;59.340;18.040;2022-08-05T08:35:52;30.50;99.90
12130;DHT22;6128;59.340;18.040;2022-08-05T08:38:19;30.40;99.90
12130;DHT22;6128;59.340;18.040;2022-08-05T08:40:46;30.10;99.90
12130;DHT22;6128;59.340;18.040;2022-08-05T08:43:15;29.90;99.90
12130;DHT22;6128;59.340;18.040;2022-08-05T08:45:46;29.70;99.90
12130;DHT22;6128;59.340;18.040;2022-08-05T08:48:15;29.60;99.90
12130;DHT22;6128;59.340;18.040;2022-08-05T08:50:46;29.50;99.90
12130;DHT22;6128;59.340;18.040;2022-08-05T08:53:16;29.30;99.90
12130;DHT22;6128;59.340;18.040;2022-08-05T08:55:46;29.10;99.90
12130;DHT22;6128;59.340;18.040;2022-08-05T08:58:14;29.00;99.90
12130;DHT22;6128;59.340;18.040;2022-08-05T09:00:42;29.00;99.90
12130;DHT22;6128;59.340;18.040;2022-08-05T09:03:11;29.10;99.90
12130;DHT22;6128;59.340;18.040;2022-08-05T09:05:39;29.50;99.90
12130;DHT22;6128;59.340;18.040;2022-08-05T09:08:06;30.10;99.90
12130;DHT22;6128;59.340;18.040;2022-08-05T09:10:33;30.80;99.90
12130;DHT22;6128;59.340;18.040;2022-08-05T09:13:01;31.30;99.90
12130;DHT22;6128;59.340;18.040;2022-08-05T09:15:28;31.40;99.90
12130;DHT22;6128;59.340;18.040;2022-08-05T09:17:55;31.40;99.90
12130;DHT22;6128;59.340;18.040;2022-08-05T09:20:23;31.30;99.90
12130;DHT22;6128;59.340;18.040;2022-08-05T09:23:09;31.20;99.90
12130;DHT22;6128;59.340;18.040;2022-08-05T09:25:38;31.30;99.90
12130;DHT22;6128;59.340;18.040;2022-08-05T09:28:12;31.40;99.90
12130;DHT22;6128;59.340;18.040;2022-08-05T09:30:42;31.40;99.90
12130;DHT22;6128;59.340;18.040;2022-08-05T09:33:10;31.20;99.90
12130;DHT22;6128;59.340;18.040;2022-08-05T09:35:55;31.00;99.90
12130;DHT22;6128;59.340;18.040;2022-08-05T09:38:22;30.80;99.90
12130;DHT22;6128;59.340;18.040;2022-08-05T09:40:49;30.40;99.90
12130;DHT22;6128;59.340;18.040;2022-08-05T09:43:28;30.20;99.90
12130;DHT22;6128;59.340;18.040;2022-08-05T09:45:56;29.90;99.80
12130;DHT22;6128;59.340;18.040;2022-08-05T09:48:24;29.70;99.80
12130;DHT22;6128;59.340;18.040;2022-08-05T09:50:54;29.50;99.80
12130;DHT22;6128;59.340;18.040;2022-08-05T09:53:22;29.10;99.70
12130;DHT22;6128;59.340;18.040;2022-08-05T09:55:55;29.00;99.70
12130;DHT22;6128;59.340;18.040;2022-08-05T09:58:22;29.00;99.60
12130;DHT22;6128;59.340;18.040;2022-08-05T10:00:55;28.80;99.60
12130;DHT22;6128;59.340;18.040;2022-08-05T10:03:23;28.60;99.50
12130;DHT22;6128;59.340;18.040;2022-08-05T10:06:06;28.60;99.50
12130;DHT22;6128;59.340;18.040;2022-08-05T10:08:37;28.60;99.50
12130;DHT22;6128;59.340;18.040;2022-08-05T10:11:13;28.70;99.50
12130;DHT22;6128;59.340;18.040;2022-08-05T10:13:42;28.70;99.50
12130;DHT22;6128;59.340;18.040;2022-08-05T10:16:27;28.80;99.50
12130;DHT22;6128;59.340;18.040;2022-08-05T10:18:55;28.80;99.50
12130;DHT22;6128;59.340;18.040;2022-08-05T10:21:23;28.60;99.40
12130;DHT22;6128;59.340;18.040;2022-08-05T10:23:51;28.40;99.50
12130;DHT22;6128;59.340;18.040;2022-08-05T10:26:19;28.40;99.40
12130;DHT22;6128;59.340;18.040;2022-08-05T10:28:46;28.40;99.40
12130;DHT22;6128;59.340;18.040;2022-08-05T10:31:14;28.40;99.40
12130;DHT22;6128;59.340;18.040;2022-08-05T10:33:43;28.30;99.50
12130;DHT22;6128;59.340;18.040;2022-08-05T10:36:10;28.30;99.50
12130;DHT22;6128;59.340;18.040;2022-08-05T10:38:41;28.30;99.50
12130;DHT22;6128;59.340;18.040;2022-08-05T10:41:17;28.30;99.60
12130;DHT22;6128;59.340;18.040;2022-08-05T10:43:50;28.40;99.50
12130;DHT22;6128;59.340;18.040;2022-08-05T10:46:20;28.30;99.50
12130;DHT22;6128;59.340;18.040;2022-08-05T10:48:48;28.20;99.50
12130;DHT22;6128;59.340;18.040;2022-08-05T10:51:17;28.10;99.50
12130;DHT22;6128;59.340;18.040;2022-08-05T10:53:52;28.00;99.50
12130;DHT22;6128;59.340;18.040;2022-08-05T10:56:21;27.90;99.40
12130;DHT22;6128;59.340;18.040;2022-08-05T10:59:00;27.80;99.40
12130;DHT22;6128;59.340;18.040;2022-08-05T11:01:30;27.80;99.50
12130;DHT22;6128;59.340;18.040;2022-08-05T11:04:04;27.70;99.50
12130;DHT22;6128;59.340;18.040;2022-08-05T11:06:32;27.60;99.50
12130;DHT22;6128;59.340;18.040;2022-08-05T11:09:17;27.40;99.50
12130;DHT22;6128;59.340;18.040;2022-08-05T11:11:45;27.30;99.60
12130;DHT22;6128;59.340;18.040;2022-08-05T11:14:22;27.20;99.70
12130;DHT22;6128;59.340;18.040;2022-08-05T11:19:50;27.10;99.80
12130;DHT22;6128;59.340;18.040;2022-08-05T11:22:37;27.00;99.80
12130;DHT22;6128;59.340;18.040;2022-08-05T11:25:28;27.00;99.90
12130;DHT22;6128;59.340;18.040;2022-08-05T11:27:55;27.00;99.90
12130;DHT22;6128;59.340;18.040;2022-08-05T11:30:23;26.90;99.90
12130;DHT22;6128;59.340;18.040;2022-08-05T11:33:25;26.70;99.90
12130;DHT22;6128;59.340;18.040;2022-08-05T11:35:54;26.50;99.90
12130;DHT22;6128;59.340;18.040;2022-08-05T11:41:23;26.20;99.90
12130;DHT22;6128;59.340;18.040;2022-08-05T11:43:55;26.10;99.90
12130;DHT22;6128;59.340;18.040;2022-08-05T11:46:26;26.00;99.90
12130;DHT22;6128;59.340;18.040;2022-08-05T11:48:54;26.00;99.90
12130;DHT22;6128;59.340;18.040;2022-08-05T11:51:22;26.00;99.90
12130;DHT22;6128;59.340;18.040;2022-08-05T11:53:50;25.90;99.90
12130;DHT22;6128;59.340;18.040;2022-08-05T11:56:17;25.90;99.90
12130;DHT22;6128;59.340;18.040;2022-08-05T11:58:47;25.80;99.90
12130;DHT22;6128;59.340;18.040;2022-08-05T12:01:16;25.70;99.90
12130;DHT22;6128;59.340;18.040;2022-08-05T12:03:45;25.70;99.90
12130;DHT22;6128;59.340;18.040;2022-08-05T12:06:14;25.60;99.90
12130;DHT22;6128;59.340;18.040;2022-08-05T12:08:43;25.60;99.90
12130;DHT22;6128;59.340;18.040;2022-08-05T12:11:16;25.50;99.90
12130;DHT22;6128;59.340;18.040;2022-08-05T12:13:54;25.50;99.90
12130;DHT22;6128;59.340;18.040;2022-08-05T12:16:22;25.30;99.90
12130;DHT22;6128;59.340;18.040;2022-08-05T12:18:50;25.20;99.90
12130;DHT22;6128;59.340;18.040;2022-08-05T12:21:19;25.20;99.90
12130;DHT22;6128;59.340;18.040;2022-08-05T12:23:56;25.10;99.90
12130;DHT22;6128;59.340;18.040;2022-08-05T12:26:24;25.10;99.90
12130;DHT22;6128;59.340;18.040;2022-08-05T12:28:57;24.90;99.90
12130;DHT22;6128;59.340;18.040;2022-08-05T12:31:24;24.70;99.90
12130;DHT22;6128;59.340;18.040;2022-08-05T12:33:52;24.60;99.90
12130;DHT22;6128;59.340;18.040;2022-08-05T12:36:19;24.40;99.90
12130;DHT22;6128;59.340;18.040;2022-08-05T12:38:47;24.30;99.90
12130;DHT22;6128;59.340;18.040;2022-08-05T12:41:15;24.20;99.90
12130;DHT22;6128;59.340;18.040;2022-08-05T12:43:50;24.00;99.90
12130;DHT22;6128;59.340;18.040;2022-08-05T12:46:23;23.90;99.90
12130;DHT22;6128;59.340;18.040;2022-08-05T12:48:57;23.60;99.90
12130;DHT22;6128;59.340;18.040;2022-08-05T12:51:24;23.40;99.90
12130;DHT22;6128;59.340;18.040;2022-08-05T12:53:58;23.20;99.90
12130;DHT22;6128;59.340;18.040;2022-08-05T12:56:27;23.00;99.90
12130;DHT22;6128;59.340;18.040;2022-08-05T12:59:10;22.90;99.90
12130;DHT22;6128;59.340;18.040;2022-08-05T13:01:40;22.80;99.90
12130;DHT22;6128;59.340;18.040;2022-08-05T13:04:07;22.80;99.90
12130;DHT22;6128;59.340;18.040;2022-08-05T13:06:40;22.70;99.90
12130;DHT22;6128;59.340;18.040;2022-08-05T13:09:09;22.50;99.90
12130;DHT22;6128;59.340;18.040;2022-08-05T13:11:41;22.40;99.90
12130;DHT22;6128;59.340;18.040;2022-08-05T13:14:18;22.40;99.90
12130;DHT22;6128;59.340;18.040;2022-08-05T13:16:52;22.40;99.90
12130;DHT22;6128;59.340;18.040;2022-08-05T13:19:24;22.30;99.90
12130;DHT22;6128;59.340;18.040;2022-08-05T13:21:54;22.40;99.90
12130;DHT22;6128;59.340;18.040;2022-08-05T13:24:22;22.30;99.90
12130;DHT22;6128;59.340;18.040;2022-08-05T13:26:50;22.30;99.90
12130;DHT22;6128;59.340;18.040;2022-08-05T13:29:18;22.30;99.90
12130;DHT22;6128;59.340;18.040;2022-08-05T13:31:46;22.30;99.90
12130;DHT22;6128;59.340;18.040;2022-08-05T13:34:15;22.40;99.90
12130;DHT22;6128;59.340;18.040;2022-08-05T13:36:42;22.50;99.90
12130;DHT22;6128;59.340;18.040;2022-08-05T13:39:09;22.60;99.90
12130;DHT22;6128;59.340;18.040;2022-08-05T13:41:38;22.60;99.90
12130;DHT22;6128;59.340;18.040;2022-08-05T13:44:05;22.60;99.90
12130;DHT22;6128;59.340;18.040;2022-08-05T13:46:33;22.60;99.90
12130;DHT22;6128;59.340;18.040;2022-08-05T13:49:00;22.60;99.90
12130;DHT22;6128;59.340;18.040;2022-08-05T13:51:30;22.50;99.90
12130;DHT22;6128;59.340;18.040;2022-08-05T13:53:58;22.50;99.90
12130;DHT22;6128;59.340;18.040;2022-08-05T13:56:25;22.60;99.90
12130;DHT22;6128;59.340;18.040;2022-08-05T13:58:52;22.60;99.90
12130;DHT22;6128;59.340;18.040;2022-08-05T14:01:20;22.50;99.90
12130;DHT22;6128;59.340;18.040;2022-08-05T14:03:47;22.40;99.90
12130;DHT22;6128;59.340;18.040;2022-08-05T14:06:33;22.40;99.90
12130;DHT22;6128;59.340;18.040;2022-08-05T14:09:00;22.30;99.90
12130;DHT22;6128;59.340;18.040;2022-08-05T14:11:28;22.20;99.90
12130;DHT22;6128;59.340;18.040;2022-08-05T14:13:55;22.20;99.90
12130;DHT22;6128;59.340;18.040;2022-08-05T14:16:22;22.10;99.90
12130;DHT22;6128;59.340;18.040;2022-08-05T14:18:50;22.00;99.90
12130;DHT22;6128;59.340;18.040;2022-08-05T14:21:17;21.90;99.90
12130;DHT22;6128;59.340;18.040;2022-08-05T14:23:45;21.90;99.90
12130;DHT22;6128;59.340;18.040;2022-08-05T14:26:12;21.90;99.90
12130;DHT22;6128;59.340;18.040;2022-08-05T14:28:39;21.80;99.90
12130;DHT22;6128;59.340;18.040;2022-08-05T14:31:07;21.70;99.90
12130;DHT22;6128;59.340;18.040;2022-08-05T14:33:34;21.70;99.90
12130;DHT22;6128;59.340;18.040;2022-08-05T14:36:02;21.60;99.90
12130;DHT22;6128;59.340;18.040;2022-08-05T14:38:29;21.60;99.90
12130;DHT22;6128;59.340;18.040;2022-08-05T14:40:58;21.60;99.90
12130;DHT22;6128;59.340;18.040;2022-08-05T14:43:26;21.60;99.90
12130;DHT22;6128;59.340;18.040;2022-08-05T14:45:53;21.60;99.90
12130;DHT22;6128;59.340;18.040;2022-08-05T14:48:20;21.60;99.90
12130;DHT22;6128;59.340;18.040;2022-08-05T14:50:47;21.60;99.90
12130;DHT22;6128;59.340;18.040;2022-08-05T14:53:15;21.50;99.90
12130;DHT22;6128;59.340;18.040;2022-08-05T14:55:42;21.60;99.90
12130;DHT22;6128;59.340;18.040;2022-08-05T14:58:10;21.60;99.90
12130;DHT22;6128;59.340;18.040;2022-08-05T15:00:37;21.60;99.90
12130;DHT22;6128;59.340;18.040;2022-08-05T15:03:04;21.50;99.90
12130;DHT22;6128;59.340;18.040;2022-08-05T15:05:32;21.50;99.90
12130;DHT22;6128;59.340;18.040;2022-08-05T15:08:01;21.50;99.90
12130;DHT22;6128;59.340;18.040;2022-08-05T15:10:28;21.40;99.90
12130;DHT22;6128;59.340;18.040;2022-08-05T15:12:56;21.40;99.90
12130;DHT22;6128;59.340;18.040;2022-08-05T15:15:26;21.40;99.90
12130;DHT22;6128;59.340;18.040;2022-08-05T15:17:53;21.40;99.90
12130;DHT22;6128;59.340;18.040;2022-08-05T15:20:20;21.40;99.90
12130;DHT22;6128;59.340;18.040;2022-08-05T15:22:49;21.30;99.90
12130;DHT22;6128;59.340;18.040;2022-08-05T15:25:16;21.30;99.90
12130;DHT22;6128;59.340;18.040;2022-08-05T15:27:44;21.20;99.90
12130;DHT22;6128;59.340;18.040;2022-08-05T15:30:12;21.20;99.90
12130;DHT22;6128;59.340;18.040;2022-08-05T15:32:41;21.20;99.90
12130;DHT22;6128;59.340;18.040;2022-08-05T15:35:08;21.20;99.90
12130;DHT22;6128;59.340;18.040;2022-08-05T15:37:35;21.20;99.90
12130;DHT22;6128;59.340;18.040;2022-08-05T15:40:04;21.10;99.90
12130;DHT22;6128;59.340;18.040;2022-08-05T15:42:31;21.10;99.90
12130;DHT22;6128;59.340;18.040;2022-08-05T15:44:58;21.00;99.90
12130;DHT22;6128;59.340;18.040;2022-08-05T15:47:26;21.10;99.90
12130;DHT22;6128;59.340;18.040;2022-08-05T15:49:54;21.10;99.90
12130;DHT22;6128;59.340;18.040;2022-08-05T15:52:21;21.10;99.90